Latest Weather Observations for Dubbo

IDN60801

Issued at 7:03 pm EST Sunday 5 July 2015 (issued every 30 minutes, with the page automatically refreshed every 10 minutes)

About weather observations | Map of weather stations | Latest weather observations for NSW | Other Formats
Station Details ID: 065070 Name: DUBBO AIRPORT AWS Lat: -32.22 Lon: 148.58 Height: 284.0 m
Data from the previous 72 hours. | See also: Recent months at Dubbo
Date/Time
EST
Temp
°C
App
Temp
°C
Dew
Point
Rel
Hum
%
Delta-T
°C
Wind Press
QNH
hPa
Press
MSL
hPa
Rain
since 9 am
mm
Dir
 
Spd
km/h
Gust
km/h
Spd
kts
Gust
kts
05/07:00pm 5.1 1.9 0.9 74 1.7 WSW 7 7 4 4 1020.4 1020.7 0.0
05/06:30pm 6.5 3.3 1.0 68 2.2 WSW 7 9 4 5 1020.4 1020.7 0.0
05/06:00pm 7.6 5.1 1.5 65 2.5 WNW 4 6 2 3 1020.4 1020.7 0.0
05/05:30pm 8.9 5.5 1.6 60 3.1 NW 9 11 5 6 1020.4 1020.7 0.0
05/05:00pm 10.0 6.1 1.1 54 3.7 NW 11 13 6 7 1020.4 1020.7 0.0
05/04:30pm 11.9 8.0 1.3 48 4.5 NNW 11 15 6 8 1020.1 1020.4 0.0
05/04:00pm 12.8 8.5 0.9 44 5.1 NW 13 17 7 9 1020.3 1020.6 0.0
05/03:30pm 13.0 8.5 -0.3 40 5.6 NW 13 17 7 9 1020.3 1020.6 0.0
05/03:00pm 13.3 8.7 1.6 45 5.1 WNW 15 20 8 11 1020.7 1021.0 0.0
05/02:30pm 13.5 8.9 1.5 44 5.2 NW 15 20 8 11 1020.6 1020.9 0.0
05/02:00pm 13.2 8.2 -1.5 36 6.0 NW 15 19 8 10 1020.5 1020.8 0.0
05/01:30pm 13.4 9.9 1.1 43 5.3 N 9 15 5 8 1020.7 1021.0 0.0
05/01:00pm 13.0 9.8 0.7 43 5.2 NNW 7 13 4 7 1021.0 1021.4 0.0
05/12:30pm 12.4 9.0 1.7 48 4.7 N 9 13 5 7 1021.3 1021.7 0.0
05/12:00pm 11.5 8.7 2.0 52 4.1 ENE 6 11 3 6 1021.7 1022.1 0.0
05/11:30am 9.7 7.1 3.0 63 2.9 ESE 6 11 3 6 1022.4 1022.8 0.0
05/11:00am 8.9 6.1 3.3 68 2.4 ESE 7 11 4 6 1022.7 1023.1 0.0
05/10:30am 7.7 5.1 3.0 72 2.0 SSE 6 11 3 6 1023.2 1023.6 0.0
05/10:00am 5.9 2.1 2.0 76 1.6 SE 11 13 6 7 1023.2 1023.6 0.0
05/09:00am 3.2 -1.9 0.8 84 0.9 SSE 17 22 9 12 1023.8 1024.1 0.0
05/08:30am 2.7 -2.3 1.1 89 0.6 SSE 17 20 9 11 1023.5 1023.8 0.0
05/08:00am 1.8 -2.9 0.6 92 0.5 S 15 20 8 11 1023.5 1023.8 0.0
05/07:30am -0.1 -5.4 -0.4 98 0.1 SSE 17 20 9 11 1022.7 1023.1 0.0
05/07:00am -1.0 -5.6 -1.4 97 0.1 SSE 13 15 7 8 1022.5 1022.9 0.0
05/06:30am -1.1 -5.4 -1.5 97 0.1 SSE 11 13 6 7 1022.3 1022.7 0.0
05/05:30am 0.5 -4.7 -0.2 95 0.3 SE 17 20 9 11 1022.0 1022.4 0.0
05/05:00am 0.5 -4.7 -0.2 95 0.3 SSE 17 20 9 11 1022.1 1022.5 0.0
05/04:30am 0.9 -3.9 0.2 95 0.3 SE 15 19 8 10 1022.0 1022.4 0.0
05/04:00am 0.7 -2.6 -0.2 94 0.3 SSE 7 11 4 6 1022.3 1022.7 0.0
05/03:30am 0.9 -3.5 0.2 95 0.3 SSE 13 19 7 10 1022.1 1022.5 0.0
05/03:00am 0.1 -4.2 -1.5 89 0.6 ESE 11 13 6 7 1022.3 1022.7 0.0
05/02:30am 2.1 -3.0 0.8 91 0.5 SE 17 20 9 11 1022.4 1022.8 0.0
05/02:00am 2.5 -3.1 1.0 90 0.6 SSE 20 24 11 13 1022.5 1022.9 0.0
05/01:30am 2.2 -2.1 1.2 93 0.4 SSE 13 17 7 9 1022.9 1023.3 0.0
05/01:00am 1.9 -1.3 0.9 93 0.4 SE 7 13 4 7 1022.6 1023.0 0.0
05/12:30am 1.5 -3.2 0.8 95 0.3 SSE 15 17 8 9 1022.6 1023.0 0.0
05/12:00am 0.7 -3.5 -0.6 91 0.5 SSE 11 13 6 7 1022.9 1023.3 0.0
 
Date/Time
EST
Temp
°C
App
Temp
°C
Dew
Point
Rel
Hum
%
Delta-T
°C
Wind Press
QNH
hPa
Press
MSL
hPa
Rain
since 9 am
mm
Dir
 
Spd
km/h
Gust
km/h
Spd
kts
Gust
kts
04/11:30pm 1.0 -2.4 -0.5 90 0.5 ESE 7 11 4 6 1023.1 1023.5 0.0
04/11:00pm 1.3 -1.6 -1.3 83 0.9 NNE 4 7 2 4 1023.5 1023.8 0.0
04/10:30pm 1.8 -2.7 -0.6 84 0.9 SSE 13 15 7 8 1023.2 1023.6 0.0
04/10:00pm 3.3 1.0 0.4 81 1.1 SE 2 7 1 4 1023.0 1023.4 0.0
04/09:30pm 4.2 -1.3 0.7 78 1.4 SSE 19 20 10 11 1022.9 1023.3 0.0
04/09:00pm 4.8 0.1 0.8 75 1.6 SSE 15 17 8 9 1023.0 1023.4 0.0
04/08:30pm 4.8 0.1 0.8 75 1.6 SSE 15 17 8 9 1023.1 1023.5 0.0
04/08:00pm 4.3 -0.2 -0.1 73 1.7 S 13 15 7 8 1023.2 1023.6 0.0
04/07:30pm 5.8 1.9 1.0 71 1.9 SSW 11 13 6 7 1023.6 1023.9 0.0
04/07:00pm 6.4 2.9 1.1 69 2.1 SW 9 11 5 6 1023.5 1023.8 0.0
04/06:30pm 6.8 5.1 2.1 72 2.0 CALM 0 0 0 0 1023.2 1023.6 0.0
04/06:00pm 7.8 5.1 2.5 69 2.2 W 6 6 3 3 1023.1 1023.5 0.0
04/05:30pm 8.4 5.5 2.6 67 2.5 WSW 7 7 4 4 1023.0 1023.4 0.0
04/05:00pm 9.2 5.9 2.5 63 2.9 W 9 13 5 7 1022.8 1023.2 0.0
04/04:30pm 10.1 6.7 2.0 57 3.5 W 9 13 5 7 1022.8 1023.2 0.0
04/04:00pm 10.9 7.2 2.2 55 3.8 WNW 11 13 6 7 1022.9 1023.3 0.0
04/03:30pm 11.2 7.4 2.0 53 4.0 NW 11 15 6 8 1022.9 1023.3 0.0
04/03:00pm 11.2 7.7 1.5 51 4.1 NNW 9 13 5 7 1023.0 1023.4 0.0
04/02:30pm 11.6 8.1 1.5 50 4.3 NW 9 15 5 8 1023.1 1023.5 0.0
04/02:00pm 11.7 8.0 0.2 45 4.8 NW 9 13 5 7 1023.1 1023.5 0.0
04/01:30pm 11.3 8.3 0.7 48 4.5 WNW 6 13 3 7 1023.1 1023.5 0.0
04/01:00pm 11.2 8.1 0.0 46 4.6 N 6 9 3 5 1023.7 1024.0 0.0
04/12:30pm 11.1 7.3 -0.7 44 4.8 NW 9 15 5 8 1024.1 1024.5 0.0
04/12:00pm 10.3 7.0 0.3 50 4.1 SE 7 11 4 6 1024.6 1025.0 0.0
04/11:30am 9.3 6.7 1.2 57 3.4 SE 4 7 2 4 1025.2 1025.6 0.0
04/11:00am 8.5 5.7 2.3 65 2.6 SE 6 9 3 5 1025.6 1026.0 0.0
04/10:30am 7.2 3.9 2.3 71 2.1 ESE 9 13 5 7 1025.8 1026.2 0.0
04/10:00am 5.8 2.0 1.7 75 1.7 ESE 11 15 6 8 1025.9 1026.3 0.0
04/09:30am 5.1 0.5 1.8 79 1.3 SE 15 17 8 9 1025.8 1026.2 0.0
04/09:00am 3.5 -0.8 1.1 84 0.9 SE 13 17 7 9 1025.6 1026.0 0.0
04/08:30am 2.0 -1.5 1.3 95 0.3 SE 9 11 5 6 1025.4 1025.8 0.0
04/08:00am 0.4 -3.6 0.3 99 0.0 SE 11 13 6 7 1025.3 1025.7 0.0
04/07:30am -1.1 -5.3 -1.2 99 0.0 SSE 11 15 6 8 1025.0 1025.4 0.0
04/07:00am -3.0 -7.1 -3.4 97 0.0 SE 9 11 5 6 1024.7 1025.1 0.0
04/06:30am -2.3 -6.3 -2.6 98 0.0 SE 9 11 5 6 1024.5 1024.9 0.0
04/06:00am -2.2 -5.9 -2.6 97 0.0 SE 7 9 4 5 1024.2 1024.6 0.0
04/05:30am -1.6 -5.6 -2.0 97 0.1 SE 9 11 5 6 1024.1 1024.5 0.0
04/05:00am -2.1 -6.2 -2.8 95 0.1 SSE 9 9 5 5 1024.2 1024.6 0.0
04/04:30am -1.2 -5.1 -1.6 97 0.1 SE 9 11 5 6 1024.3 1024.7 0.0
04/04:00am -1.1 -4.7 -1.8 95 0.2 ESE 7 9 4 5 1024.4 1024.8 0.0
04/03:30am -0.8 -4.4 -1.8 93 0.3 SE 7 7 4 4 1024.3 1024.7 0.0
04/03:00am 0.0 -3.2 -0.7 95 0.3 SSE 6 13 3 7 1024.8 1025.2 0.0
04/02:30am -0.5 -4.8 -1.5 93 0.3 SE 11 15 6 8 1024.7 1025.1 0.0
04/02:00am 0.0 -2.9 -1.3 91 0.5 ENE 4 7 2 4 1025.0 1025.4 0.0
04/01:30am 1.0 -3.9 -0.5 90 0.5 SSE 15 17 8 9 1025.3 1025.7 0.0
04/01:00am 1.6 -2.8 0.4 92 0.4 SSE 13 15 7 8 1025.2 1025.6 0.0
04/12:30am 1.4 -2.6 0.4 93 0.4 SSE 11 13 6 7 1025.4 1025.8 0.0
04/12:00am 1.4 -3.4 0.4 93 0.4 SSE 15 17 8 9 1025.4 1025.8 0.0
 
Date/Time
EST
Temp
°C
App
Temp
°C
Dew
Point
Rel
Hum
%
Delta-T
°C
Wind Press
QNH
hPa
Press
MSL
hPa
Rain
since 9 am
mm
Dir
 
Spd
km/h
Gust
km/h
Spd
kts
Gust
kts
03/11:30pm 0.8 -2.9 0.1 95 0.3 SE 9 15 5 8 1025.4 1025.8 0.0
03/11:00pm 0.2 -3.1 -1.1 91 0.5 SE 6 7 3 4 1025.9 1026.3 0.0
03/10:30pm 0.4 -1.8 -1.2 89 0.6 CALM 0 6 0 3 1026.2 1026.6 0.0
03/10:00pm 0.0 -2.3 -2.2 85 0.8 CALM 0 2 0 1 1026.3 1026.7 0.0
03/09:30pm 1.7 -2.7 0.1 89 0.6 SE 13 13 7 7 1026.1 1026.5 0.0
03/09:00pm 1.0 -3.6 -1.4 84 0.8 SE 13 13 7 7 1026.1 1026.5 0.0
03/08:30pm 2.6 -1.4 -2.5 69 1.8 S 9 13 5 7 1026.3 1026.7 0.0
03/08:00pm 5.2 0.8 0.2 70 1.9 S 13 13 7 7 1026.2 1026.6 0.0
03/07:30pm 4.5 0.0 -0.1 72 1.8 SSW 13 15 7 8 1026.0 1026.4 0.0
03/07:00pm 4.7 0.6 -0.3 70 1.9 SW 11 13 6 7 1026.0 1026.4 0.0
03/06:30pm 5.6 1.2 0.2 68 2.1 SW 13 15 7 8 1025.9 1026.3 0.0
03/06:00pm 5.8 1.7 0.0 66 2.3 SW 11 11 6 6 1025.8 1026.2 0.0
03/05:30pm 7.7 4.6 1.1 63 2.7 W 7 9 4 5 1025.7 1026.1 0.0
03/05:00pm 9.5 5.9 0.7 54 3.6 WNW 9 11 5 6 1025.6 1026.0 0.0
03/04:30pm 11.8 8.6 0.9 47 4.6 WNW 7 9 4 5 1025.4 1025.8 0.0
03/04:00pm 12.2 9.4 -0.3 42 5.2 SW 4 9 2 5 1025.3 1025.7 0.0
03/03:30pm 12.3 9.2 0.1 43 5.1 W 6 9 3 5 1025.2 1025.6 0.0
03/03:00pm 12.4 9.5 1.4 47 4.7 NW 6 9 3 5 1025.2 1025.6 0.0
03/02:30pm 12.1 8.7 2.0 50 4.4 W 9 13 5 7 1025.2 1025.6 0.0
03/02:00pm 11.5 8.0 1.5 50 4.3 SSE 9 15 5 8 1025.4 1025.8 0.0
03/01:30pm 12.2 9.8 2.1 50 4.4 ESE 4 9 2 5 1025.9 1026.3 0.0
03/01:00pm 11.2 8.7 1.7 52 4.1 ENE 4 11 2 6 1026.4 1026.8 0.0
03/12:30pm 10.1 6.6 1.5 55 3.6 ESE 9 13 5 7 1026.8 1027.2 0.0
03/12:00pm 9.8 6.3 1.2 55 3.6 SSE 9 13 5 7 1027.3 1027.7 0.0
03/11:30am 9.1 4.7 0.3 54 3.6 SSE 13 17 7 9 1027.8 1028.2 0.0
03/11:00am 8.3 3.3 1.2 61 2.9 SSE 17 24 9 13 1028.0 1028.4 0.0
03/10:30am 7.6 2.4 2.3 69 2.2 SSE 19 24 10 13 1028.2 1028.6 0.0
03/10:00am 6.2 0.8 2.3 76 1.6 SE 20 24 11 13 1028.4 1028.8 0.0
03/09:30am 4.9 -0.3 2.3 83 1.1 SE 19 22 10 12 1028.3 1028.7 0.0
03/09:00am 4.0 -0.1 2.5 90 0.6 SSE 13 17 7 9 1028.1 1028.5 0.2
03/08:30am 2.3 -2.3 1.7 96 0.2 SSE 15 17 8 9 1027.7 1028.1 0.2
03/08:00am 0.7 -3.3 0.6 99 0.0 SSE 11 15 6 8 1027.4 1027.8 0.2
03/07:30am -1.3 -4.6 -1.4 99 0.0 E 6 9 3 5 1027.1 1027.5 0.0
03/07:00am -2.3 -6.7 -2.7 97 0.0 SE 11 13 6 7 1026.6 1027.0 0.0
03/06:30am -2.1 -6.5 -2.8 95 0.1 SSE 11 15 6 8 1026.4 1026.8 0.0
03/06:00am -0.7 -3.6 -1.3 96 0.2 W 4 7 2 4 1026.3 1026.7 0.0
03/05:30am -0.6 -4.9 -1.6 93 0.3 SSE 11 15 6 8 1025.8 1026.2 0.0
03/05:00am 0.1 -4.8 -0.2 98 0.1 S 15 15 8 8 1025.4 1025.8 0.0
03/04:30am -0.1 -3.5 -0.5 97 0.1 SSW 7 9 4 5 1025.5 1025.9 0.0
03/04:00am 0.1 -3.1 -0.7 94 0.3 ESE 6 7 3 4 1025.4 1025.8 0.0
03/03:30am 0.6 -3.7 -1.3 87 0.7 ENE 11 15 6 8 1025.4 1025.8 0.0
03/03:00am 3.2 -1.1 1.1 86 0.8 S 13 17 7 9 1025.2 1025.6 0.0
03/02:30am 3.9 -1.0 1.9 87 0.8 S 17 20 9 11 1025.4 1025.8 0.0
03/02:00am 3.1 -1.5 1.3 88 0.7 SSW 15 17 8 9 1025.7 1026.1 0.0
03/01:30am 2.5 -1.5 0.7 88 0.7 SSW 11 15 6 8 1025.9 1026.3 0.0
03/01:00am 4.2 1.3 2.7 90 0.6 SSW 7 11 4 6 1025.9 1026.3 0.0
03/12:30am 3.0 -1.0 0.7 85 0.9 S 11 13 6 7 1026.0 1026.4 0.0
03/12:00am 4.3 0.1 1.7 83 1.0 SSW 13 15 7 8 1026.1 1026.5 0.0
 
Date/Time
EST
Temp
°C
App
Temp
°C
Dew
Point
Rel
Hum
%
Delta-T
°C
Wind Press
QNH
hPa
Press
MSL
hPa
Rain
since 9 am
mm
Dir
 
Spd
km/h
Gust
km/h
Spd
kts
Gust
kts
02/11:30pm 5.8 1.1 3.0 82 1.2 SSW 17 20 9 11 1026.3 1026.7 0.0
02/11:00pm 6.0 2.1 3.5 84 1.1 SW 13 17 7 9 1026.1 1026.5 0.0
02/10:30pm 6.6 2.1 4.4 86 1.0 SW 17 24 9 13 1025.8 1026.2 0.0
02/10:00pm 5.4 0.9 4.1 91 0.6 WSW 17 20 9 11 1025.7 1026.1 0.0
02/09:30pm 6.5 2.0 4.0 84 1.1 SW 17 19 9 10 1025.8 1026.2 0.0
02/09:00pm 6.1 1.5 3.9 86 0.9 WSW 17 20 9 11 1025.6 1026.0 0.0
02/08:30pm 7.6 3.1 4.4 80 1.4 SW 17 20 9 11 1025.5 1025.9 0.0
02/08:00pm 9.9 5.3 5.5 74 2.0 SW 19 26 10 14 1025.2 1025.6 0.0
02/07:30pm 10.4 5.6 5.8 73 2.2 SW 20 32 11 17 1024.9 1025.3 0.0

Other Formats:

Comma delimited format used in spreadsheet applications
http://www.bom.gov.au/fwo/IDN60801/IDN60801.95719.axf

JavaScript Object Notation format (JSON) in row-major order
http://www.bom.gov.au/fwo/IDN60801/IDN60801.95719.json